sensor_id;sensor_type;location;lat;lon;timestamp;P1;durP1;ratioP1;P2;durP2;ratioP2
10162;SDS011;5123;52.556;13.384;2022-07-06T00:00:30;2.17;;;1.43;;
10162;SDS011;5123;52.556;13.384;2022-07-06T00:03:21;2.87;;;1.60;;
10162;SDS011;5123;52.556;13.384;2022-07-06T00:06:13;3.43;;;1.90;;
10162;SDS011;5123;52.556;13.384;2022-07-06T00:09:08;1.90;;;1.70;;
10162;SDS011;5123;52.556;13.384;2022-07-06T00:11:59;2.73;;;1.40;;
10162;SDS011;5123;52.556;13.384;2022-07-06T00:14:51;2.03;;;1.50;;
10162;SDS011;5123;52.556;13.384;2022-07-06T00:17:42;2.80;;;1.30;;
10162;SDS011;5123;52.556;13.384;2022-07-06T00:20:33;2.70;;;1.63;;
10162;SDS011;5123;52.556;13.384;2022-07-06T00:23:24;2.70;;;1.50;;
10162;SDS011;5123;52.556;13.384;2022-07-06T00:26:17;3.10;;;1.50;;
10162;SDS011;5123;52.556;13.384;2022-07-06T00:29:08;1.63;;;1.47;;
10162;SDS011;5123;52.556;13.384;2022-07-06T00:32:00;3.27;;;1.80;;
10162;SDS011;5123;52.556;13.384;2022-07-06T00:34:51;1.73;;;1.40;;
10162;SDS011;5123;52.556;13.384;2022-07-06T00:37:45;3.20;;;1.73;;
10162;SDS011;5123;52.556;13.384;2022-07-06T00:40:38;2.50;;;1.47;;
10162;SDS011;5123;52.556;13.384;2022-07-06T00:46:38;4.03;;;1.53;;
10162;SDS011;5123;52.556;13.384;2022-07-06T00:49:28;5.03;;;1.53;;
10162;SDS011;5123;52.556;13.384;2022-07-06T00:52:37;4.60;;;1.50;;
10162;SDS011;5123;52.556;13.384;2022-07-06T00:55:29;4.77;;;1.50;;
10162;SDS011;5123;52.556;13.384;2022-07-06T00:58:20;2.27;;;1.53;;
10162;SDS011;5123;52.556;13.384;2022-07-06T01:01:12;2.23;;;1.53;;
10162;SDS011;5123;52.556;13.384;2022-07-06T01:04:07;3.00;;;1.40;;
10162;SDS011;5123;52.556;13.384;2022-07-06T01:06:58;3.73;;;1.70;;
10162;SDS011;5123;52.556;13.384;2022-07-06T01:09:49;2.63;;;1.57;;
10162;SDS011;5123;52.556;13.384;2022-07-06T01:12:42;2.17;;;1.77;;
10162;SDS011;5123;52.556;13.384;2022-07-06T01:15:33;2.77;;;1.60;;
10162;SDS011;5123;52.556;13.384;2022-07-06T01:18:24;2.53;;;1.60;;
10162;SDS011;5123;52.556;13.384;2022-07-06T01:21:18;2.63;;;1.63;;
10162;SDS011;5123;52.556;13.384;2022-07-06T01:24:09;3.67;;;1.70;;
10162;SDS011;5123;52.556;13.384;2022-07-06T01:27:00;4.13;;;1.60;;
10162;SDS011;5123;52.556;13.384;2022-07-06T01:29:51;4.87;;;2.63;;
10162;SDS011;5123;52.556;13.384;2022-07-06T01:32:42;1.47;;;1.37;;
10162;SDS011;5123;52.556;13.384;2022-07-06T01:35:34;3.67;;;1.60;;
10162;SDS011;5123;52.556;13.384;2022-07-06T01:38:27;2.67;;;1.40;;
10162;SDS011;5123;52.556;13.384;2022-07-06T01:41:19;2.57;;;1.67;;
10162;SDS011;5123;52.556;13.384;2022-07-06T01:44:10;3.10;;;1.27;;
10162;SDS011;5123;52.556;13.384;2022-07-06T01:47:01;2.07;;;1.27;;
10162;SDS011;5123;52.556;13.384;2022-07-06T01:49:53;1.70;;;1.47;;
10162;SDS011;5123;52.556;13.384;2022-07-06T01:52:44;3.70;;;1.90;;
10162;SDS011;5123;52.556;13.384;2022-07-06T01:55:36;2.43;;;1.40;;
10162;SDS011;5123;52.556;13.384;2022-07-06T01:58:27;2.20;;;1.57;;
10162;SDS011;5123;52.556;13.384;2022-07-06T02:01:19;2.70;;;1.57;;
10162;SDS011;5123;52.556;13.384;2022-07-06T02:04:11;3.13;;;1.73;;
10162;SDS011;5123;52.556;13.384;2022-07-06T02:07:02;3.53;;;1.60;;
10162;SDS011;5123;52.556;13.384;2022-07-06T02:09:53;3.00;;;1.80;;
10162;SDS011;5123;52.556;13.384;2022-07-06T02:12:46;2.60;;;1.60;;
10162;SDS011;5123;52.556;13.384;2022-07-06T02:15:37;4.60;;;1.83;;
10162;SDS011;5123;52.556;13.384;2022-07-06T02:18:28;1.93;;;1.40;;
10162;SDS011;5123;52.556;13.384;2022-07-06T02:21:19;1.87;;;1.40;;
10162;SDS011;5123;52.556;13.384;2022-07-06T02:24:11;3.60;;;1.90;;
10162;SDS011;5123;52.556;13.384;2022-07-06T02:27:02;4.47;;;1.97;;
10162;SDS011;5123;52.556;13.384;2022-07-06T02:29:55;2.87;;;2.03;;
10162;SDS011;5123;52.556;13.384;2022-07-06T02:32:46;3.23;;;2.17;;
10162;SDS011;5123;52.556;13.384;2022-07-06T02:35:37;3.33;;;2.00;;
10162;SDS011;5123;52.556;13.384;2022-07-06T02:38:32;6.73;;;2.20;;
10162;SDS011;5123;52.556;13.384;2022-07-06T02:41:23;5.00;;;2.37;;
10162;SDS011;5123;52.556;13.384;2022-07-06T02:44:14;2.00;;;1.80;;
10162;SDS011;5123;52.556;13.384;2022-07-06T02:47:07;3.63;;;2.20;;
10162;SDS011;5123;52.556;13.384;2022-07-06T02:49:58;2.40;;;2.20;;
10162;SDS011;5123;52.556;13.384;2022-07-06T02:52:49;5.47;;;1.70;;
10162;SDS011;5123;52.556;13.384;2022-07-06T02:55:40;5.13;;;2.30;;
10162;SDS011;5123;52.556;13.384;2022-07-06T02:58:31;5.20;;;2.30;;
10162;SDS011;5123;52.556;13.384;2022-07-06T03:01:22;4.90;;;1.80;;
10162;SDS011;5123;52.556;13.384;2022-07-06T03:04:15;2.30;;;2.00;;
10162;SDS011;5123;52.556;13.384;2022-07-06T03:07:06;2.87;;;1.80;;
10162;SDS011;5123;52.556;13.384;2022-07-06T03:09:57;3.53;;;1.80;;
10162;SDS011;5123;52.556;13.384;2022-07-06T03:12:48;4.90;;;2.07;;
10162;SDS011;5123;52.556;13.384;2022-07-06T03:15:39;4.10;;;2.17;;
10162;SDS011;5123;52.556;13.384;2022-07-06T03:18:30;2.23;;;1.83;;
10162;SDS011;5123;52.556;13.384;2022-07-06T03:21:23;4.13;;;2.20;;
10162;SDS011;5123;52.556;13.384;2022-07-06T03:24:14;4.50;;;2.40;;
10162;SDS011;5123;52.556;13.384;2022-07-06T03:27:05;2.77;;;2.50;;
10162;SDS011;5123;52.556;13.384;2022-07-06T03:29:56;4.73;;;2.43;;
10162;SDS011;5123;52.556;13.384;2022-07-06T03:32:47;3.00;;;2.10;;
10162;SDS011;5123;52.556;13.384;2022-07-06T03:35:38;5.50;;;2.60;;
10162;SDS011;5123;52.556;13.384;2022-07-06T03:38:31;4.07;;;2.40;;
10162;SDS011;5123;52.556;13.384;2022-07-06T03:41:21;4.77;;;2.00;;
10162;SDS011;5123;52.556;13.384;2022-07-06T03:44:13;3.70;;;2.10;;
10162;SDS011;5123;52.556;13.384;2022-07-06T03:47:04;4.20;;;2.20;;
10162;SDS011;5123;52.556;13.384;2022-07-06T03:49:55;3.97;;;2.13;;
10162;SDS011;5123;52.556;13.384;2022-07-06T03:52:46;4.80;;;2.47;;
10162;SDS011;5123;52.556;13.384;2022-07-06T03:55:39;3.77;;;2.33;;
10162;SDS011;5123;52.556;13.384;2022-07-06T03:58:30;2.10;;;1.90;;
10162;SDS011;5123;52.556;13.384;2022-07-06T04:01:21;2.13;;;1.90;;
10162;SDS011;5123;52.556;13.384;2022-07-06T04:04:12;3.77;;;2.23;;
10162;SDS011;5123;52.556;13.384;2022-07-06T04:07:04;4.20;;;1.83;;
10162;SDS011;5123;52.556;13.384;2022-07-06T04:09:55;3.70;;;1.93;;
10162;SDS011;5123;52.556;13.384;2022-07-06T04:12:47;2.20;;;2.00;;
10162;SDS011;5123;52.556;13.384;2022-07-06T04:15:38;2.60;;;1.90;;
10162;SDS011;5123;52.556;13.384;2022-07-06T04:18:30;2.30;;;1.80;;
10162;SDS011;5123;52.556;13.384;2022-07-06T04:21:21;2.70;;;1.80;;
10162;SDS011;5123;52.556;13.384;2022-07-06T04:24:12;3.30;;;1.90;;
10162;SDS011;5123;52.556;13.384;2022-07-06T04:27:03;5.23;;;1.70;;
10162;SDS011;5123;52.556;13.384;2022-07-06T04:29:56;3.47;;;1.70;;
10162;SDS011;5123;52.556;13.384;2022-07-06T04:32:47;4.60;;;1.60;;
10162;SDS011;5123;52.556;13.384;2022-07-06T04:35:38;2.57;;;1.97;;
10162;SDS011;5123;52.556;13.384;2022-07-06T04:38:30;2.37;;;1.83;;
10162;SDS011;5123;52.556;13.384;2022-07-06T04:41:21;3.47;;;1.90;;
10162;SDS011;5123;52.556;13.384;2022-07-06T04:44:12;3.70;;;1.80;;
10162;SDS011;5123;52.556;13.384;2022-07-06T04:47:05;11.60;;;2.23;;
10162;SDS011;5123;52.556;13.384;2022-07-06T04:49:56;2.87;;;1.97;;
10162;SDS011;5123;52.556;13.384;2022-07-06T04:52:48;3.30;;;1.73;;
10162;SDS011;5123;52.556;13.384;2022-07-06T04:55:39;4.07;;;1.87;;
10162;SDS011;5123;52.556;13.384;2022-07-06T04:58:30;5.10;;;1.90;;
10162;SDS011;5123;52.556;13.384;2022-07-06T05:01:22;1.50;;;1.40;;
10162;SDS011;5123;52.556;13.384;2022-07-06T05:04:15;6.23;;;1.77;;
10162;SDS011;5123;52.556;13.384;2022-07-06T05:07:08;5.70;;;1.80;;
10162;SDS011;5123;52.556;13.384;2022-07-06T05:09:59;4.03;;;1.70;;
10162;SDS011;5123;52.556;13.384;2022-07-06T05:12:50;3.83;;;1.90;;
10162;SDS011;5123;52.556;13.384;2022-07-06T05:15:41;3.63;;;2.13;;
10162;SDS011;5123;52.556;13.384;2022-07-06T05:18:33;1.67;;;1.50;;
10162;SDS011;5123;52.556;13.384;2022-07-06T05:21:26;4.70;;;1.80;;
10162;SDS011;5123;52.556;13.384;2022-07-06T05:24:17;1.90;;;1.43;;
10162;SDS011;5123;52.556;13.384;2022-07-06T05:27:09;3.73;;;1.77;;
10162;SDS011;5123;52.556;13.384;2022-07-06T05:30:00;1.90;;;1.60;;
10162;SDS011;5123;52.556;13.384;2022-07-06T05:32:51;3.43;;;1.63;;
10162;SDS011;5123;52.556;13.384;2022-07-06T05:35:43;2.37;;;1.53;;
10162;SDS011;5123;52.556;13.384;2022-07-06T05:38:42;1.70;;;1.60;;
10162;SDS011;5123;52.556;13.384;2022-07-06T05:41:33;2.33;;;1.57;;
10162;SDS011;5123;52.556;13.384;2022-07-06T05:44:24;1.57;;;1.47;;
10162;SDS011;5123;52.556;13.384;2022-07-06T05:47:15;2.07;;;1.47;;
10162;SDS011;5123;52.556;13.384;2022-07-06T05:50:25;4.10;;;1.70;;
10162;SDS011;5123;52.556;13.384;2022-07-06T05:53:16;3.53;;;1.60;;
10162;SDS011;5123;52.556;13.384;2022-07-06T05:56:11;3.03;;;1.57;;
10162;SDS011;5123;52.556;13.384;2022-07-06T05:59:02;3.10;;;1.60;;
10162;SDS011;5123;52.556;13.384;2022-07-06T06:01:53;2.93;;;1.50;;
10162;SDS011;5123;52.556;13.384;2022-07-06T06:04:45;2.27;;;1.80;;
10162;SDS011;5123;52.556;13.384;2022-07-06T06:07:36;4.07;;;1.57;;
10162;SDS011;5123;52.556;13.384;2022-07-06T06:10:27;4.27;;;1.90;;
10162;SDS011;5123;52.556;13.384;2022-07-06T06:13:20;2.67;;;1.70;;
10162;SDS011;5123;52.556;13.384;2022-07-06T06:16:11;5.13;;;1.73;;
10162;SDS011;5123;52.556;13.384;2022-07-06T06:19:03;2.60;;;1.67;;
10162;SDS011;5123;52.556;13.384;2022-07-06T06:21:54;3.73;;;1.67;;
10162;SDS011;5123;52.556;13.384;2022-07-06T06:24:45;4.50;;;1.70;;
10162;SDS011;5123;52.556;13.384;2022-07-06T06:27:37;2.93;;;1.70;;
10162;SDS011;5123;52.556;13.384;2022-07-06T06:30:30;2.13;;;1.60;;
10162;SDS011;5123;52.556;13.384;2022-07-06T06:33:21;7.73;;;2.07;;
10162;SDS011;5123;52.556;13.384;2022-07-06T06:36:13;3.50;;;1.70;;
10162;SDS011;5123;52.556;13.384;2022-07-06T06:39:04;3.13;;;1.93;;
10162;SDS011;5123;52.556;13.384;2022-07-06T06:41:55;3.60;;;1.53;;
10162;SDS011;5123;52.556;13.384;2022-07-06T06:44:46;3.57;;;1.50;;
10162;SDS011;5123;52.556;13.384;2022-07-06T06:47:38;3.00;;;1.63;;
10162;SDS011;5123;52.556;13.384;2022-07-06T06:50:30;5.03;;;1.77;;
10162;SDS011;5123;52.556;13.384;2022-07-06T06:53:21;2.27;;;1.40;;
10162;SDS011;5123;52.556;13.384;2022-07-06T06:56:12;4.10;;;1.60;;
10162;SDS011;5123;52.556;13.384;2022-07-06T06:59:04;4.47;;;1.73;;
10162;SDS011;5123;52.556;13.384;2022-07-06T07:02:10;2.70;;;1.60;;
10162;SDS011;5123;52.556;13.384;2022-07-06T07:05:03;4.33;;;1.77;;
10162;SDS011;5123;52.556;13.384;2022-07-06T07:07:54;4.20;;;1.57;;
10162;SDS011;5123;52.556;13.384;2022-07-06T07:10:54;4.23;;;2.07;;
10162;SDS011;5123;52.556;13.384;2022-07-06T07:13:45;5.37;;;1.60;;
10162;SDS011;5123;52.556;13.384;2022-07-06T07:16:36;2.57;;;1.47;;
10162;SDS011;5123;52.556;13.384;2022-07-06T07:19:28;5.27;;;2.03;;
10162;SDS011;5123;52.556;13.384;2022-07-06T07:22:20;5.03;;;1.70;;
10162;SDS011;5123;52.556;13.384;2022-07-06T07:25:12;3.93;;;1.80;;
10162;SDS011;5123;52.556;13.384;2022-07-06T07:28:03;3.13;;;1.40;;
10162;SDS011;5123;52.556;13.384;2022-07-06T07:30:54;4.57;;;1.60;;
10162;SDS011;5123;52.556;13.384;2022-07-06T07:33:45;1.30;;;1.10;;
10162;SDS011;5123;52.556;13.384;2022-07-06T07:36:37;2.40;;;1.17;;
10162;SDS011;5123;52.556;13.384;2022-07-06T07:39:29;3.90;;;1.23;;
10162;SDS011;5123;52.556;13.384;2022-07-06T07:42:21;2.73;;;1.50;;
10162;SDS011;5123;52.556;13.384;2022-07-06T07:45:12;4.43;;;1.80;;
10162;SDS011;5123;52.556;13.384;2022-07-06T07:48:03;4.40;;;1.30;;
10162;SDS011;5123;52.556;13.384;2022-07-06T07:50:55;2.47;;;1.30;;
10162;SDS011;5123;52.556;13.384;2022-07-06T07:53:46;2.10;;;1.33;;
10162;SDS011;5123;52.556;13.384;2022-07-06T07:56:39;2.30;;;1.40;;
10162;SDS011;5123;52.556;13.384;2022-07-06T07:59:30;1.93;;;1.33;;
10162;SDS011;5123;52.556;13.384;2022-07-06T08:02:21;3.03;;;1.27;;
10162;SDS011;5123;52.556;13.384;2022-07-06T08:05:12;2.07;;;1.20;;
10162;SDS011;5123;52.556;13.384;2022-07-06T08:08:05;3.37;;;1.30;;
10162;SDS011;5123;52.556;13.384;2022-07-06T08:10:57;1.33;;;1.10;;
10162;SDS011;5123;52.556;13.384;2022-07-06T08:14:08;4.13;;;1.20;;
10162;SDS011;5123;52.556;13.384;2022-07-06T08:16:59;2.70;;;1.50;;
10162;SDS011;5123;52.556;13.384;2022-07-06T08:19:51;2.13;;;1.10;;
10162;SDS011;5123;52.556;13.384;2022-07-06T08:22:42;1.63;;;1.17;;
10162;SDS011;5123;52.556;13.384;2022-07-06T08:25:34;3.43;;;1.37;;
10162;SDS011;5123;52.556;13.384;2022-07-06T08:28:25;2.40;;;1.37;;
10162;SDS011;5123;52.556;13.384;2022-07-06T08:31:18;1.87;;;1.30;;
10162;SDS011;5123;52.556;13.384;2022-07-06T08:34:30;5.13;;;1.40;;
10162;SDS011;5123;52.556;13.384;2022-07-06T08:37:23;3.23;;;1.30;;
10162;SDS011;5123;52.556;13.384;2022-07-06T08:40:14;2.43;;;1.40;;
10162;SDS011;5123;52.556;13.384;2022-07-06T08:43:06;1.80;;;1.30;;
10162;SDS011;5123;52.556;13.384;2022-07-06T08:45:57;4.00;;;1.37;;
10162;SDS011;5123;52.556;13.384;2022-07-06T08:48:50;0.80;;;0.80;;
10162;SDS011;5123;52.556;13.384;2022-07-06T08:51:42;3.80;;;2.90;;
10162;SDS011;5123;52.556;13.384;2022-07-06T08:54:33;1.67;;;0.90;;
10162;SDS011;5123;52.556;13.384;2022-07-06T08:57:24;1.67;;;1.03;;
10162;SDS011;5123;52.556;13.384;2022-07-06T09:00:17;2.50;;;1.07;;
10162;SDS011;5123;52.556;13.384;2022-07-06T09:03:08;1.20;;;1.10;;
10162;SDS011;5123;52.556;13.384;2022-07-06T09:06:03;2.23;;;1.10;;
10162;SDS011;5123;52.556;13.384;2022-07-06T09:08:55;3.77;;;1.20;;
10162;SDS011;5123;52.556;13.384;2022-07-06T09:11:47;1.60;;;1.00;;
10162;SDS011;5123;52.556;13.384;2022-07-06T09:14:38;1.83;;;0.80;;
10162;SDS011;5123;52.556;13.384;2022-07-06T09:17:29;1.83;;;1.10;;
10162;SDS011;5123;52.556;13.384;2022-07-06T09:20:20;3.80;;;2.77;;
10162;SDS011;5123;52.556;13.384;2022-07-06T09:23:15;3.13;;;1.27;;
10162;SDS011;5123;52.556;13.384;2022-07-06T09:26:07;1.20;;;1.00;;
10162;SDS011;5123;52.556;13.384;2022-07-06T09:29:01;1.67;;;0.90;;
10162;SDS011;5123;52.556;13.384;2022-07-06T09:31:56;2.17;;;0.67;;
10162;SDS011;5123;52.556;13.384;2022-07-06T09:34:48;1.33;;;0.93;;
10162;SDS011;5123;52.556;13.384;2022-07-06T09:37:39;4.07;;;1.17;;
10162;SDS011;5123;52.556;13.384;2022-07-06T09:40:33;2.10;;;0.83;;
10162;SDS011;5123;52.556;13.384;2022-07-06T09:43:25;1.90;;;0.90;;
10162;SDS011;5123;52.556;13.384;2022-07-06T09:46:17;2.37;;;0.87;;
10162;SDS011;5123;52.556;13.384;2022-07-06T09:49:09;0.90;;;0.80;;
10162;SDS011;5123;52.556;13.384;2022-07-06T09:52:01;3.17;;;1.20;;
10162;SDS011;5123;52.556;13.384;2022-07-06T09:54:53;3.43;;;1.20;;
10162;SDS011;5123;52.556;13.384;2022-07-06T09:57:53;1.17;;;1.07;;
10162;SDS011;5123;52.556;13.384;2022-07-06T10:00:46;0.80;;;0.80;;
10162;SDS011;5123;52.556;13.384;2022-07-06T10:03:37;2.60;;;0.80;;
10162;SDS011;5123;52.556;13.384;2022-07-06T10:06:29;6.63;;;1.40;;
10162;SDS011;5123;52.556;13.384;2022-07-06T10:09:20;5.17;;;1.00;;
10162;SDS011;5123;52.556;13.384;2022-07-06T10:12:12;0.80;;;0.80;;
10162;SDS011;5123;52.556;13.384;2022-07-06T10:15:06;3.23;;;1.10;;
10162;SDS011;5123;52.556;13.384;2022-07-06T10:17:57;4.77;;;1.00;;
10162;SDS011;5123;52.556;13.384;2022-07-06T10:20:49;2.90;;;1.43;;
10162;SDS011;5123;52.556;13.384;2022-07-06T10:23:40;2.20;;;1.17;;
10162;SDS011;5123;52.556;13.384;2022-07-06T10:26:32;4.27;;;1.37;;
10162;SDS011;5123;52.556;13.384;2022-07-06T10:29:24;2.03;;;1.33;;
10162;SDS011;5123;52.556;13.384;2022-07-06T10:32:18;2.33;;;1.30;;
10162;SDS011;5123;52.556;13.384;2022-07-06T10:35:09;1.57;;;1.00;;
10162;SDS011;5123;52.556;13.384;2022-07-06T10:38:04;3.23;;;1.17;;
10162;SDS011;5123;52.556;13.384;2022-07-06T10:40:58;1.60;;;1.00;;
10162;SDS011;5123;52.556;13.384;2022-07-06T10:43:54;3.23;;;1.00;;
10162;SDS011;5123;52.556;13.384;2022-07-06T10:46:51;4.53;;;0.87;;
10162;SDS011;5123;52.556;13.384;2022-07-06T10:49:48;1.40;;;1.00;;
10162;SDS011;5123;52.556;13.384;2022-07-06T10:52:50;2.13;;;1.03;;
10162;SDS011;5123;52.556;13.384;2022-07-06T10:55:43;3.70;;;1.20;;
10162;SDS011;5123;52.556;13.384;2022-07-06T10:58:41;3.63;;;1.07;;
10162;SDS011;5123;52.556;13.384;2022-07-06T11:01:37;1.57;;;0.87;;
10162;SDS011;5123;52.556;13.384;2022-07-06T11:04:36;5.10;;;2.93;;
10162;SDS011;5123;52.556;13.384;2022-07-06T11:07:30;2.10;;;1.17;;
10162;SDS011;5123;52.556;13.384;2022-07-06T11:10:24;0.80;;;0.80;;
10162;SDS011;5123;52.556;13.384;2022-07-06T11:13:26;1.23;;;0.70;;
10162;SDS011;5123;52.556;13.384;2022-07-06T11:16:18;1.53;;;1.00;;
10162;SDS011;5123;52.556;13.384;2022-07-06T11:19:09;1.73;;;1.00;;
10162;SDS011;5123;52.556;13.384;2022-07-06T11:22:04;2.90;;;1.10;;
10162;SDS011;5123;52.556;13.384;2022-07-06T11:24:58;2.13;;;1.00;;
10162;SDS011;5123;52.556;13.384;2022-07-06T11:27:49;2.10;;;0.90;;
10162;SDS011;5123;52.556;13.384;2022-07-06T11:30:41;1.20;;;0.80;;
10162;SDS011;5123;52.556;13.384;2022-07-06T11:33:32;1.43;;;0.90;;
10162;SDS011;5123;52.556;13.384;2022-07-06T11:36:24;2.40;;;1.07;;
10162;SDS011;5123;52.556;13.384;2022-07-06T11:39:21;1.90;;;1.03;;
10162;SDS011;5123;52.556;13.384;2022-07-06T11:42:14;1.47;;;1.00;;
10162;SDS011;5123;52.556;13.384;2022-07-06T11:45:07;2.07;;;1.10;;
10162;SDS011;5123;52.556;13.384;2022-07-06T11:48:09;0.83;;;0.80;;
10162;SDS011;5123;52.556;13.384;2022-07-06T11:51:01;0.97;;;0.87;;
10162;SDS011;5123;52.556;13.384;2022-07-06T11:53:52;1.10;;;0.80;;
10162;SDS011;5123;52.556;13.384;2022-07-06T11:56:47;1.27;;;1.13;;
10162;SDS011;5123;52.556;13.384;2022-07-06T11:59:41;0.90;;;0.70;;
10162;SDS011;5123;52.556;13.384;2022-07-06T12:02:32;3.40;;;1.20;;
10162;SDS011;5123;52.556;13.384;2022-07-06T12:05:28;1.33;;;0.80;;
10162;SDS011;5123;52.556;13.384;2022-07-06T12:08:20;1.30;;;1.10;;
10162;SDS011;5123;52.556;13.384;2022-07-06T12:11:16;1.70;;;0.90;;
10162;SDS011;5123;52.556;13.384;2022-07-06T12:14:14;2.37;;;0.90;;
10162;SDS011;5123;52.556;13.384;2022-07-06T12:17:08;2.43;;;1.20;;
10162;SDS011;5123;52.556;13.384;2022-07-06T12:20:00;4.80;;;1.40;;
10162;SDS011;5123;52.556;13.384;2022-07-06T12:23:00;0.90;;;0.80;;
10162;SDS011;5123;52.556;13.384;2022-07-06T12:25:51;3.90;;;0.90;;
10162;SDS011;5123;52.556;13.384;2022-07-06T12:28:44;3.70;;;1.20;;
10162;SDS011;5123;52.556;13.384;2022-07-06T12:31:37;2.77;;;1.03;;
10162;SDS011;5123;52.556;13.384;2022-07-06T12:34:30;3.10;;;1.00;;
10162;SDS011;5123;52.556;13.384;2022-07-06T12:37:24;2.53;;;1.17;;
10162;SDS011;5123;52.556;13.384;2022-07-06T12:40:16;1.73;;;0.90;;
10162;SDS011;5123;52.556;13.384;2022-07-06T12:43:07;1.93;;;0.93;;
10162;SDS011;5123;52.556;13.384;2022-07-06T12:45:58;2.30;;;1.10;;
10162;SDS011;5123;52.556;13.384;2022-07-06T12:48:50;3.97;;;1.20;;
10162;SDS011;5123;52.556;13.384;2022-07-06T12:51:49;1.73;;;0.80;;
10162;SDS011;5123;52.556;13.384;2022-07-06T12:54:41;0.90;;;0.90;;
10162;SDS011;5123;52.556;13.384;2022-07-06T12:57:42;2.77;;;0.87;;
10162;SDS011;5123;52.556;13.384;2022-07-06T13:00:43;3.40;;;1.00;;
10162;SDS011;5123;52.556;13.384;2022-07-06T13:03:37;2.07;;;1.00;;
10162;SDS011;5123;52.556;13.384;2022-07-06T13:06:30;1.07;;;0.70;;
10162;SDS011;5123;52.556;13.384;2022-07-06T13:09:23;2.67;;;1.00;;
10162;SDS011;5123;52.556;13.384;2022-07-06T13:12:14;1.67;;;1.00;;
10162;SDS011;5123;52.556;13.384;2022-07-06T13:15:06;2.83;;;1.00;;
10162;SDS011;5123;52.556;13.384;2022-07-06T13:17:57;2.50;;;0.90;;
10162;SDS011;5123;52.556;13.384;2022-07-06T13:20:48;1.33;;;1.10;;
10162;SDS011;5123;52.556;13.384;2022-07-06T13:23:40;3.63;;;1.20;;
10162;SDS011;5123;52.556;13.384;2022-07-06T13:26:33;3.10;;;0.97;;
10162;SDS011;5123;52.556;13.384;2022-07-06T13:29:25;1.77;;;0.73;;
10162;SDS011;5123;52.556;13.384;2022-07-06T13:32:16;1.17;;;0.87;;
10162;SDS011;5123;52.556;13.384;2022-07-06T13:35:08;0.83;;;0.83;;
10162;SDS011;5123;52.556;13.384;2022-07-06T13:38:00;2.50;;;1.30;;
10162;SDS011;5123;52.556;13.384;2022-07-06T13:40:51;1.77;;;1.67;;
10162;SDS011;5123;52.556;13.384;2022-07-06T13:43:44;1.80;;;1.00;;
10162;SDS011;5123;52.556;13.384;2022-07-06T13:46:35;0.90;;;0.70;;
10162;SDS011;5123;52.556;13.384;2022-07-06T13:49:27;0.63;;;0.63;;
10162;SDS011;5123;52.556;13.384;2022-07-06T13:52:21;1.03;;;0.80;;
10162;SDS011;5123;52.556;13.384;2022-07-06T13:55:12;1.67;;;1.00;;
10162;SDS011;5123;52.556;13.384;2022-07-06T13:58:03;1.00;;;0.90;;
10162;SDS011;5123;52.556;13.384;2022-07-06T14:00:56;1.23;;;0.60;;
10162;SDS011;5123;52.556;13.384;2022-07-06T14:03:48;0.60;;;0.60;;
10162;SDS011;5123;52.556;13.384;2022-07-06T14:06:39;0.73;;;0.57;;
10162;SDS011;5123;52.556;13.384;2022-07-06T14:09:31;1.67;;;0.63;;
10162;SDS011;5123;52.556;13.384;2022-07-06T14:12:21;1.77;;;0.70;;
10162;SDS011;5123;52.556;13.384;2022-07-06T14:15:16;2.30;;;0.80;;
10162;SDS011;5123;52.556;13.384;2022-07-06T14:18:11;2.27;;;0.80;;
10162;SDS011;5123;52.556;13.384;2022-07-06T14:21:02;1.70;;;0.70;;
10162;SDS011;5123;52.556;13.384;2022-07-06T14:23:54;0.97;;;0.70;;
10162;SDS011;5123;52.556;13.384;2022-07-06T14:26:45;0.80;;;0.70;;
10162;SDS011;5123;52.556;13.384;2022-07-06T14:29:36;1.93;;;0.80;;
10162;SDS011;5123;52.556;13.384;2022-07-06T14:32:28;4.17;;;1.00;;
10162;SDS011;5123;52.556;13.384;2022-07-06T14:35:21;1.00;;;0.60;;
10162;SDS011;5123;52.556;13.384;2022-07-06T14:38:13;1.30;;;1.13;;
10162;SDS011;5123;52.556;13.384;2022-07-06T14:41:04;2.50;;;0.70;;
10162;SDS011;5123;52.556;13.384;2022-07-06T14:43:55;1.10;;;1.00;;
10162;SDS011;5123;52.556;13.384;2022-07-06T14:46:47;1.77;;;1.00;;
10162;SDS011;5123;52.556;13.384;2022-07-06T14:49:38;1.87;;;0.80;;
10162;SDS011;5123;52.556;13.384;2022-07-06T14:52:31;2.03;;;0.77;;
10162;SDS011;5123;52.556;13.384;2022-07-06T14:55:22;2.53;;;1.10;;
10162;SDS011;5123;52.556;13.384;2022-07-06T14:58:14;0.87;;;0.87;;
10162;SDS011;5123;52.556;13.384;2022-07-06T15:01:07;2.47;;;1.00;;
10162;SDS011;5123;52.556;13.384;2022-07-06T15:03:58;2.53;;;1.20;;
10162;SDS011;5123;52.556;13.384;2022-07-06T15:06:50;2.10;;;0.90;;
10162;SDS011;5123;52.556;13.384;2022-07-06T15:09:46;4.00;;;1.13;;
10162;SDS011;5123;52.556;13.384;2022-07-06T15:12:37;1.80;;;0.90;;
10162;SDS011;5123;52.556;13.384;2022-07-06T15:15:29;1.27;;;0.90;;
10162;SDS011;5123;52.556;13.384;2022-07-06T15:18:40;4.97;;;1.60;;
10162;SDS011;5123;52.556;13.384;2022-07-06T15:21:31;0.90;;;0.90;;
10162;SDS011;5123;52.556;13.384;2022-07-06T15:24:22;2.17;;;1.13;;
10162;SDS011;5123;52.556;13.384;2022-07-06T15:27:15;2.40;;;1.00;;
10162;SDS011;5123;52.556;13.384;2022-07-06T15:30:06;2.17;;;1.00;;
10162;SDS011;5123;52.556;13.384;2022-07-06T15:33:17;1.20;;;1.00;;
10162;SDS011;5123;52.556;13.384;2022-07-06T15:36:09;3.30;;;1.23;;
10162;SDS011;5123;52.556;13.384;2022-07-06T15:39:00;1.10;;;0.93;;
10162;SDS011;5123;52.556;13.384;2022-07-06T15:41:51;2.63;;;1.30;;
10162;SDS011;5123;52.556;13.384;2022-07-06T15:44:44;1.40;;;0.90;;
10162;SDS011;5123;52.556;13.384;2022-07-06T15:47:35;1.87;;;1.20;;
10162;SDS011;5123;52.556;13.384;2022-07-06T15:50:26;2.03;;;1.20;;
10162;SDS011;5123;52.556;13.384;2022-07-06T15:53:19;1.93;;;1.03;;
10162;SDS011;5123;52.556;13.384;2022-07-06T15:56:10;3.43;;;1.00;;
10162;SDS011;5123;52.556;13.384;2022-07-06T15:59:02;1.90;;;1.30;;
10162;SDS011;5123;52.556;13.384;2022-07-06T16:01:55;2.23;;;1.30;;
10162;SDS011;5123;52.556;13.384;2022-07-06T16:04:46;1.10;;;1.00;;
10162;SDS011;5123;52.556;13.384;2022-07-06T16:07:37;3.30;;;1.00;;
10162;SDS011;5123;52.556;13.384;2022-07-06T16:10:48;1.50;;;1.40;;
10162;SDS011;5123;52.556;13.384;2022-07-06T16:13:39;1.00;;;0.90;;
10162;SDS011;5123;52.556;13.384;2022-07-06T16:16:31;3.63;;;1.17;;
10162;SDS011;5123;52.556;13.384;2022-07-06T16:19:24;1.10;;;0.87;;
10162;SDS011;5123;52.556;13.384;2022-07-06T16:22:16;4.30;;;0.80;;
10162;SDS011;5123;52.556;13.384;2022-07-06T16:25:08;1.23;;;1.00;;
10162;SDS011;5123;52.556;13.384;2022-07-06T16:27:59;0.70;;;0.70;;
10162;SDS011;5123;52.556;13.384;2022-07-06T16:30:51;0.70;;;0.60;;
10162;SDS011;5123;52.556;13.384;2022-07-06T16:33:42;1.80;;;0.90;;
10162;SDS011;5123;52.556;13.384;2022-07-06T16:36:35;2.20;;;1.23;;
10162;SDS011;5123;52.556;13.384;2022-07-06T16:39:26;1.30;;;0.70;;
10162;SDS011;5123;52.556;13.384;2022-07-06T16:42:18;0.67;;;0.67;;
10162;SDS011;5123;52.556;13.384;2022-07-06T16:45:14;2.27;;;0.97;;
10162;SDS011;5123;52.556;13.384;2022-07-06T16:48:06;1.03;;;0.70;;
10162;SDS011;5123;52.556;13.384;2022-07-06T16:50:57;2.07;;;0.80;;
10162;SDS011;5123;52.556;13.384;2022-07-06T16:53:51;1.67;;;0.70;;
10162;SDS011;5123;52.556;13.384;2022-07-06T16:56:42;2.47;;;0.90;;
10162;SDS011;5123;52.556;13.384;2022-07-06T16:59:33;2.80;;;1.73;;
10162;SDS011;5123;52.556;13.384;2022-07-06T17:02:24;0.80;;;0.70;;
10162;SDS011;5123;52.556;13.384;2022-07-06T17:05:16;0.70;;;0.70;;
10162;SDS011;5123;52.556;13.384;2022-07-06T17:08:07;0.97;;;0.80;;
10162;SDS011;5123;52.556;13.384;2022-07-06T17:11:00;2.23;;;0.70;;
10162;SDS011;5123;52.556;13.384;2022-07-06T17:13:51;1.87;;;0.83;;
10162;SDS011;5123;52.556;13.384;2022-07-06T17:16:42;0.60;;;0.60;;
10162;SDS011;5123;52.556;13.384;2022-07-06T17:19:34;1.40;;;0.80;;
10162;SDS011;5123;52.556;13.384;2022-07-06T17:22:25;1.43;;;0.80;;